Time;durP1;ratioP1;P1;durP2;ratioP2;P2;SDS_P1;SDS_P2;PMS_P1;PMS_P2;Temp;Humidity;BMP_temperature;BMP_pressure;BME280_temperature;BME280_humidity;BME280_pressure;Samples;Min_cycle;Max_cycle;Signal;HPM_P1;HPM_P2
2023/09/06 00:03:03;;;;;;;1.15;1.05;;;;;;;;;;10399852;28;20621;-74
2023/09/06 00:08:05;;;;;;;3.45;0.70;;;;;;;;;;10411241;28;20214;-75
2023/09/06 00:13:10;;;;;;;1.23;1.23;;;;;;;;;;10412455;28;20712;-75
2023/09/06 00:18:11;;;;;;;0.75;0.75;;;;;;;;;;10421165;28;20229;-73
2023/09/06 00:23:14;;;;;;;0.70;0.70;;;;;;;;;;10418167;28;20228;-73
2023/09/06 00:28:15;;;;;;;0.80;0.80;;;;;;;;;;10420487;28;20221;-74
2023/09/06 00:33:16;;;;;;;0.65;0.65;;;;;;;;;;10406857;28;20233;-72
2023/09/06 00:38:17;;;;;;;0.80;0.80;;;;;;;;;;10421241;28;20207;-74
2023/09/06 00:43:18;;;;;;;1.02;1.02;;;;;;;;;;10410599;28;20203;-74
2023/09/06 00:48:21;;;;;;;3.10;0.88;;;;;;;;;;10419471;28;20215;-73
2023/09/06 00:53:23;;;;;;;0.88;0.88;;;;;;;;;;10420094;28;20215;-74
2023/09/06 00:58:26;;;;;;;0.80;0.80;;;;;;;;;;10416974;28;20243;-74
2023/09/06 01:03:27;;;;;;;0.80;0.80;;;;;;;;;;10420500;28;20241;-72
2023/09/06 01:08:31;;;;;;;1.70;1.13;;;;;;;;;;10415758;28;20321;-74
2023/09/06 01:13:33;;;;;;;0.95;0.95;;;;;;;;;;10418556;28;20250;-74
2023/09/06 01:18:34;;;;;;;0.77;0.77;;;;;;;;;;10407667;28;20570;-73
2023/09/06 01:23:35;;;;;;;0.80;0.80;;;;;;;;;;10400831;28;20203;-73
2023/09/06 01:28:36;;;;;;;2.50;1.20;;;;;;;;;;10420244;28;20219;-75
2023/09/06 01:33:39;;;;;;;1.08;1.08;;;;;;;;;;10419968;28;20213;-73
2023/09/06 01:38:41;;;;;;;1.35;1.25;;;;;;;;;;10404976;28;20207;-74
2023/09/06 01:43:42;;;;;;;1.05;1.00;;;;;;;;;;10409242;28;20268;-73
2023/09/06 01:48:43;;;;;;;0.90;0.90;;;;;;;;;;10412046;28;20284;-73
2023/09/06 01:53:44;;;;;;;1.85;1.00;;;;;;;;;;10409098;28;20577;-72
2023/09/06 01:58:46;;;;;;;1.00;1.00;;;;;;;;;;10412223;28;20256;-73
2023/09/06 02:03:47;;;;;;;1.25;1.25;;;;;;;;;;10396184;28;20234;-72
2023/09/06 02:08:49;;;;;;;1.13;1.10;;;;;;;;;;10411883;28;20219;-74
2023/09/06 02:13:53;;;;;;;1.60;1.30;;;;;;;;;;10397745;28;20218;-73
2023/09/06 02:18:54;;;;;;;0.95;0.95;;;;;;;;;;10413367;28;20657;-73
2023/09/06 02:23:56;;;;;;;1.33;1.20;;;;;;;;;;10410685;28;20322;-73
2023/09/06 02:28:57;;;;;;;1.13;1.13;;;;;;;;;;10390593;28;20219;-74
2023/09/06 02:33:59;;;;;;;2.58;1.10;;;;;;;;;;10393402;28;20226;-73
2023/09/06 02:39:01;;;;;;;0.75;0.75;;;;;;;;;;10416269;28;20716;-75
2023/09/06 02:44:02;;;;;;;6.22;1.15;;;;;;;;;;10397402;28;20479;-73
2023/09/06 02:49:11;;;;;;;0.95;0.95;;;;;;;;;;10408899;28;20593;-76
2023/09/06 02:54:12;;;;;;;2.97;0.93;;;;;;;;;;10396920;28;20243;-74
2023/09/06 02:59:15;;;;;;;0.85;0.85;;;;;;;;;;10410412;28;20765;-74
2023/09/06 03:04:16;;;;;;;0.93;0.93;;;;;;;;;;10407232;28;20818;-75
2023/09/06 03:09:18;;;;;;;1.13;1.13;;;;;;;;;;10399999;28;20230;-74
2023/09/06 03:14:20;;;;;;;1.30;1.30;;;;;;;;;;10397249;28;20234;-73
2023/09/06 03:19:22;;;;;;;0.93;0.93;;;;;;;;;;10417434;28;20617;-75
2023/09/06 03:24:23;;;;;;;1.10;1.10;;;;;;;;;;10400305;28;20958;-73
2023/09/06 03:29:27;;;;;;;1.00;1.00;;;;;;;;;;10420209;28;20297;-74
2023/09/06 03:34:28;;;;;;;0.82;0.82;;;;;;;;;;10406220;28;20213;-74
2023/09/06 03:39:30;;;;;;;1.13;1.13;;;;;;;;;;10404353;28;20214;-74
2023/09/06 03:44:31;;;;;;;2.13;0.98;;;;;;;;;;10410705;28;20246;-77
2023/09/06 03:49:36;;;;;;;0.98;0.82;;;;;;;;;;10407205;28;20368;-74
2023/09/06 03:54:38;;;;;;;0.98;0.93;;;;;;;;;;10398487;28;20222;-73
2023/09/06 03:59:40;;;;;;;3.22;0.80;;;;;;;;;;10412071;28;20209;-73
2023/09/06 04:04:42;;;;;;;1.08;0.98;;;;;;;;;;10415340;28;20335;-73
2023/09/06 04:09:43;;;;;;;1.90;1.27;;;;;;;;;;10406774;28;20218;-72
2023/09/06 04:14:45;;;;;;;1.45;1.20;;;;;;;;;;10415594;28;21116;-74
2023/09/06 04:19:47;;;;;;;1.27;1.27;;;;;;;;;;10412331;28;20207;-73
2023/09/06 04:24:48;;;;;;;1.10;1.10;;;;;;;;;;10387473;28;20689;-74
2023/09/06 04:29:49;;;;;;;1.63;1.00;;;;;;;;;;10397868;28;20231;-72
2023/09/06 04:34:51;;;;;;;3.00;1.10;;;;;;;;;;10391896;28;20211;-74
2023/09/06 04:39:53;;;;;;;1.23;1.15;;;;;;;;;;10411995;28;20301;-73
2023/09/06 04:44:55;;;;;;;1.45;0.95;;;;;;;;;;10390631;28;20210;-75
2023/09/06 04:49:56;;;;;;;1.20;1.20;;;;;;;;;;10407953;28;20220;-73
2023/09/06 04:54:58;;;;;;;1.33;1.30;;;;;;;;;;10391688;28;20215;-74
2023/09/06 05:00:00;;;;;;;2.90;1.60;;;;;;;;;;10396000;28;20218;-73
2023/09/06 05:05:01;;;;;;;1.33;1.23;;;;;;;;;;10421009;28;20242;-73
2023/09/06 05:10:03;;;;;;;1.30;1.25;;;;;;;;;;10415484;28;20210;-74
2023/09/06 05:15:08;;;;;;;1.63;1.50;;;;;;;;;;10424848;28;20230;-72
2023/09/06 05:20:27;;;;;;;1.77;1.55;;;;;;;;;;10420956;28;20921;-72
2023/09/06 05:25:32;;;;;;;1.50;1.40;;;;;;;;;;10404430;28;20246;-74
2023/09/06 05:30:37;;;;;;;3.65;1.73;;;;;;;;;;10399835;28;20215;-74
2023/09/06 05:35:38;;;;;;;1.77;1.67;;;;;;;;;;10419856;28;20247;-73
2023/09/06 05:40:41;;;;;;;3.85;1.90;;;;;;;;;;10415035;28;20744;-75
2023/09/06 05:45:44;;;;;;;1.85;1.75;;;;;;;;;;10418128;28;20211;-72
2023/09/06 05:50:48;;;;;;;2.47;2.28;;;;;;;;;;10399730;28;20222;-73
2023/09/06 05:55:49;;;;;;;2.35;2.03;;;;;;;;;;10412364;28;20801;-73
2023/09/06 06:00:54;;;;;;;2.55;2.15;;;;;;;;;;10401859;28;20264;-74
2023/09/06 06:05:55;;;;;;;3.60;2.65;;;;;;;;;;10416851;28;20321;-75
2023/09/06 06:10:56;;;;;;;3.00;2.13;;;;;;;;;;10401299;28;20297;-73
2023/09/06 06:15:57;;;;;;;4.35;3.42;;;;;;;;;;10420371;28;20226;-73
2023/09/06 06:20:58;;;;;;;4.53;3.08;;;;;;;;;;10418450;28;20296;-73
2023/09/06 06:25:59;;;;;;;5.28;3.78;;;;;;;;;;10414981;28;20241;-73
2023/09/06 06:31:00;;;;;;;3.55;3.35;;;;;;;;;;10413029;28;20758;-73
2023/09/06 06:36:01;;;;;;;4.25;3.50;;;;;;;;;;10418867;28;20643;-74
2023/09/06 06:41:03;;;;;;;6.18;3.38;;;;;;;;;;10418814;28;20825;-72
2023/09/06 06:46:05;;;;;;;3.90;3.58;;;;;;;;;;10403673;28;20214;-74
2023/09/06 06:51:06;;;;;;;4.70;3.70;;;;;;;;;;10407296;28;20221;-75
2023/09/06 06:56:07;;;;;;;4.22;3.72;;;;;;;;;;10394156;28;20356;-76
2023/09/06 07:01:08;;;;;;;5.25;3.30;;;;;;;;;;10398363;28;20765;-72
2023/09/06 07:06:09;;;;;;;4.53;3.95;;;;;;;;;;10400418;28;20210;-76
2023/09/06 07:11:11;;;;;;;3.47;3.25;;;;;;;;;;10415431;28;20253;-76
2023/09/06 07:16:12;;;;;;;3.65;3.33;;;;;;;;;;10411679;28;20774;-75
2023/09/06 07:21:15;;;;;;;3.60;3.30;;;;;;;;;;10403971;28;20467;-76
2023/09/06 07:26:16;;;;;;;3.30;3.10;;;;;;;;;;10398653;28;20215;-75
2023/09/06 07:31:17;;;;;;;3.13;2.92;;;;;;;;;;10389956;28;20217;-74
2023/09/06 07:36:19;;;;;;;5.45;3.13;;;;;;;;;;10396996;28;20211;-72
2023/09/06 07:41:20;;;;;;;2.92;2.72;;;;;;;;;;10405850;28;20211;-75
2023/09/06 07:46:25;;;;;;;3.17;3.08;;;;;;;;;;10403898;28;20211;-74
2023/09/06 07:51:26;;;;;;;3.70;3.40;;;;;;;;;;10408435;28;21475;-73
2023/09/06 07:56:27;;;;;;;3.35;2.40;;;;;;;;;;10405393;28;20215;-73
2023/09/06 08:01:28;;;;;;;4.82;3.42;;;;;;;;;;10394812;28;20218;-73
2023/09/06 08:06:29;;;;;;;5.43;2.55;;;;;;;;;;10389573;28;20214;-75
2023/09/06 08:11:30;;;;;;;3.80;2.90;;;;;;;;;;10397812;28;20219;-73
2023/09/06 08:16:31;;;;;;;6.63;2.55;;;;;;;;;;10385990;28;20234;-73
2023/09/06 08:21:33;;;;;;;2.60;2.47;;;;;;;;;;10413933;28;20629;-73
2023/09/06 08:26:34;;;;;;;2.38;2.13;;;;;;;;;;10402260;28;20253;-82
2023/09/06 08:31:35;;;;;;;2.35;2.15;;;;;;;;;;10408571;28;20218;-76
2023/09/06 08:36:36;;;;;;;3.67;1.65;;;;;;;;;;10433483;28;20245;-76
2023/09/06 08:41:37;;;;;;;33.33;9.93;;;;;;;;;;10420164;28;20218;-77
2023/09/06 08:46:42;;;;;;;10.18;4.80;;;;;;;;;;10422097;28;20215;-77
2023/09/06 08:51:44;;;;;;;4.28;2.17;;;;;;;;;;10410012;28;20245;-75
2023/09/06 08:56:45;;;;;;;1.90;1.80;;;;;;;;;;10408500;28;20232;-77
2023/09/06 09:01:46;;;;;;;2.05;1.98;;;;;;;;;;10416858;28;20207;-78
2023/09/06 09:06:47;;;;;;;2.17;1.80;;;;;;;;;;10412987;28;20309;-78
2023/09/06 09:11:53;;;;;;;1.60;1.50;;;;;;;;;;10395370;28;20219;-78
2023/09/06 09:16:57;;;;;;;1.98;1.88;;;;;;;;;;10401209;28;20599;-78
2023/09/06 09:21:58;;;;;;;1.52;1.52;;;;;;;;;;10397346;28;20218;-78
2023/09/06 09:26:59;;;;;;;3.70;2.20;;;;;;;;;;10415189;28;20209;-78
2023/09/06 09:32:04;;;;;;;1.60;1.55;;;;;;;;;;10419846;28;20245;-78
2023/09/06 09:37:08;;;;;;;3.90;1.30;;;;;;;;;;10413569;28;20326;-78
2023/09/06 09:42:12;;;;;;;1.70;1.63;;;;;;;;;;10406116;28;20215;-77
2023/09/06 09:47:14;;;;;;;1.73;1.73;;;;;;;;;;10415292;28;20207;-77
